Date,TemperatureHighF,TemperatureAvgF,TemperatureLowF,DewpointHighF,DewpointAvgF,DewpointLowF,HumidityHigh,HumidityAvg,HumidityLow,PressureMaxIn,PressureMinIn,WindSpeedMaxMPH,WindSpeedAvgMPH,GustSpeedMaxMPH,PrecipitationSumIn
2013-1-1,37.6,34.4,24.4,29.8,23.3,11.5,75,64,52,30.08,29.91,18,4,18,0.00
2013-1-2,32.3,25.2,18.1,16.6,12.8,9.0,76,59,45,30.25,30.06,19,1,19,0.00
2013-1-3,32.0,25.7,16.9,19.4,15.1,12.9,86,65,49,30.25,30.13,15,2,15,0.00
2013-1-4,36.4,32.6,27.2,23.8,20.8,16.6,73,61,53,30.15,30.01,24,6,24,0.00
2013-1-5,43.6,33.6,27.4,24.4,20.8,17.3,79,60,41,30.35,30.08,23,3,23,0.00
2013-1-6,43.0,36.9,30.2,29.9,26.9,22.4,83,68,54,30.27,30.03,14,2,14,0.00
2013-1-7,44.3,35.0,27.2,29.3,25.1,21.8,87,69,41,30.44,30.11,16,1,16,0.00
2013-1-8,46.9,36.2,27.5,29.9,26.5,22.4,85,68,49,30.45,30.39,18,2,18,0.00
2013-1-9,44.6,35.0,23.5,36.0,29.6,21.0,93,81,67,30.44,30.20,18,2,18,0.00
2013-1-10,49.0,40.8,33.5,31.6,26.2,23.0,76,57,38,30.59,30.31,18,3,18,0.00
2013-1-11,42.6,37.1,31.1,39.5,32.5,26.4,96,83,71,30.58,30.15,13,1,13,0.33
2013-1-12,44.3,40.9,37.8,44.1,40.2,37.0,100,97,94,30.22,30.15,8,0,8,0.00
2013-1-13,47.9,45.2,41.3,47.9,45.1,40.9,100,100,97,30.20,30.04,13,1,13,0.00
2013-1-14,55.6,48.2,36.4,53.4,41.8,29.0,100,81,53,30.35,29.93,19,2,19,0.07
2013-1-15,36.6,35.1,33.1,31.6,27.6,24.5,88,74,62,30.40,30.22,10,1,10,0.13
2013-1-16,35.2,31.9,29.9,33.0,29.9,27.8,95,92,85,30.22,29.86,13,2,13,0.43
2013-1-17,40.4,36.7,33.3,32.7,27.3,22.5,90,69,54,30.11,29.94,19,2,19,0.00
2013-1-18,33.3,27.0,22.8,22.8,10.1,0.5,71,50,30,30.47,30.02,22,3,22,0.00
2013-1-19,47.0,38.0,26.4,27.4,21.5,8.4,68,52,39,30.39,29.91,21,6,21,0.00
2013-1-20,49.8,39.9,26.7,28.7,20.6,8.7,63,47,23,30.06,29.72,35,8,35,0.00
2013-1-21,28.1,25.4,22.2,18.2,11.4,6.7,78,55,43,30.09,29.87,16,2,16,0.00
2013-1-22,23.3,16.3,10.5,10.7,-1.1,-9.8,69,46,30,30.23,29.86,27,7,27,0.00
2013-1-23,17.6,11.6,8.0,2.7,-3.2,-8.8,76,52,30,30.28,30.19,22,3,22,0.00
2013-1-24,22.2,13.8,6.2,3.3,-0.1,-6.1,81,56,30,30.46,30.16,25,2,25,0.00
2013-1-25,21.9,15.0,9.6,13.0,3.5,-5.0,83,61,40,30.47,30.09,11,1,11,0.01
2013-1-26,27.0,17.2,9.2,8.8,6.1,4.1,83,63,38,30.41,30.08,12,2,20,0.00
2013-1-27,35.3,20.7,10.1,14.1,9.4,5.4,83,64,30,30.57,30.41,16,1,16,0.00
2013-1-28,36.2,29.1,19.5,34.4,24.7,12.9,93,84,70,30.51,30.03,20,3,20,0.13
2013-1-29,52.3,42.1,34.4,43.2,38.3,32.5,96,87,69,30.16,30.03,11,1,11,0.05
2013-1-30,64.5,52.4,43.2,58.2,50.4,42.1,100,93,80,30.06,29.31,25,2,25,0.54
2013-1-31,60.4,41.1,26.9,59.0,27.2,7.5,97,60,36,29.79,29.03,39,13,39,1.24